createdAt,value
2023-03-24T00:01:21.649Z,10.40
2023-03-24T00:03:51.375Z,11.15
2023-03-24T00:06:21.973Z,10.15
2023-03-24T00:08:49.888Z,11.15
2023-03-24T00:11:18.938Z,11.83
2023-03-24T00:13:48.722Z,12.33
2023-03-24T00:16:18.851Z,11.08
2023-03-24T00:18:48.517Z,9.60
2023-03-24T00:21:17.778Z,9.70
2023-03-24T00:23:47.207Z,9.60
2023-03-24T00:26:16.090Z,9.20
2023-03-24T00:28:47.439Z,9.90
2023-03-24T00:31:17.554Z,9.55
2023-03-24T00:33:50.623Z,10.63
2023-03-24T00:36:22.593Z,10.65
2023-03-24T00:38:50.531Z,11.38
2023-03-24T00:41:19.760Z,11.68
2023-03-24T00:43:49.773Z,12.20
2023-03-24T00:46:27.612Z,11.68
2023-03-24T00:49:04.987Z,10.63
2023-03-24T00:51:38.047Z,10.53
2023-03-24T00:54:09.042Z,11.18
2023-03-24T00:56:39.940Z,10.38
2023-03-24T00:59:09.433Z,9.65
2023-03-24T01:01:39.047Z,9.65
2023-03-24T01:04:07.298Z,9.48
2023-03-24T01:06:37.768Z,10.03
2023-03-24T01:09:07.257Z,10.50
2023-03-24T01:11:40.713Z,10.90
2023-03-24T01:14:10.678Z,11.93
2023-03-24T01:16:39.098Z,12.07
2023-03-24T01:19:08.728Z,10.93
2023-03-24T01:21:38.338Z,10.80
2023-03-24T01:24:07.200Z,10.30
2023-03-24T01:26:35.458Z,9.65
2023-03-24T01:29:03.675Z,9.05
2023-03-24T01:31:31.813Z,9.53
2023-03-24T01:33:59.732Z,8.73
2023-03-24T01:36:27.650Z,8.23
2023-03-24T01:38:57.340Z,7.85
2023-03-24T01:41:27.856Z,7.58
2023-03-24T01:43:56.155Z,7.67
2023-03-24T01:46:26.004Z,8.78
2023-03-24T01:48:59.365Z,10.13
2023-03-24T01:54:17.938Z,15.65
2023-03-24T01:56:53.954Z,12.07
2023-03-24T01:59:27.242Z,12.10
2023-03-24T02:01:59.399Z,11.15
2023-03-24T02:04:42.698Z,8.90
2023-03-24T02:07:31.835Z,9.05
2023-03-24T02:10:08.127Z,6.67
2023-03-24T02:12:42.959Z,6.53
2023-03-24T02:15:14.660Z,6.70
2023-03-24T02:18:13.176Z,6.85
2023-03-24T02:21:12.025Z,6.28
2023-03-24T02:24:19.168Z,6.45
2023-03-24T02:27:22.829Z,5.95
2023-03-24T02:30:18.684Z,5.87
2023-03-24T02:33:13.836Z,5.97
2023-03-24T02:36:02.615Z,6.22
2023-03-24T02:38:56.231Z,6.62
2023-03-24T02:41:52.180Z,6.72
2023-03-24T02:44:31.040Z,7.33
2023-03-24T02:47:32.468Z,7.62
2023-03-24T02:50:26.866Z,7.37
2023-03-24T02:53:28.961Z,7.55
2023-03-24T02:56:22.573Z,7.33
2023-03-24T02:59:02.908Z,7.35
2023-03-24T03:01:40.680Z,7.55
2023-03-24T03:04:33.369Z,7.80
2023-03-24T03:07:05.807Z,8.28
2023-03-24T03:09:37.976Z,8.08
2023-03-24T03:12:10.016Z,9.05
2023-03-24T03:14:45.974Z,9.60
2023-03-24T03:17:18.675Z,10.05
2023-03-24T03:20:04.683Z,10.63
2023-03-24T03:23:01.911Z,11.60
2023-03-24T03:25:35.379Z,10.70
2023-03-24T03:28:06.647Z,11.22
2023-03-24T03:30:58.654Z,9.48
2023-03-24T03:33:40.466Z,9.78
2023-03-24T03:36:13.731Z,11.15
2023-03-24T03:39:16.665Z,11.00
2023-03-24T03:41:47.290Z,10.03
2023-03-24T03:44:15.476Z,12.78
2023-03-24T03:46:43.482Z,16.25
2023-03-24T03:49:13.228Z,14.43
2023-03-24T03:51:41.160Z,12.78
2023-03-24T03:54:12.499Z,11.33
2023-03-24T03:56:42.630Z,12.95
2023-03-24T03:59:29.049Z,25.55
2023-03-24T04:01:57.881Z,21.27
2023-03-24T04:04:53.283Z,15.80
2023-03-24T04:07:39.155Z,20.52
2023-03-24T04:10:52.325Z,19.32
2023-03-24T04:14:13.481Z,13.50
2023-03-24T04:17:25.488Z,11.97
2023-03-24T04:20:14.861Z,12.98
2023-03-24T04:23:08.947Z,12.30
2023-03-24T04:28:42.936Z,14.98
2023-03-24T04:31:34.450Z,16.07
2023-03-24T04:34:20.306Z,18.15
2023-03-24T04:36:56.990Z,28.10
2023-03-24T04:39:30.164Z,28.05
2023-03-24T04:42:04.156Z,17.12
2023-03-24T04:44:33.293Z,15.65
2023-03-24T04:47:22.537Z,11.55
2023-03-24T04:50:01.849Z,12.07
2023-03-24T04:52:30.318Z,11.90
2023-03-24T04:55:00.137Z,11.93
2023-03-24T04:57:27.870Z,14.63
2023-03-24T05:00:00.769Z,17.45
2023-03-24T05:02:28.684Z,16.25
2023-03-24T05:05:02.368Z,13.70
2023-03-24T05:07:32.491Z,14.90
2023-03-24T05:10:01.915Z,19.80
2023-03-24T05:12:30.831Z,15.93
2023-03-24T05:15:01.104Z,15.78
2023-03-24T05:17:29.164Z,15.30
2023-03-24T05:19:56.907Z,17.00
2023-03-24T05:22:25.150Z,15.70
2023-03-24T05:24:52.775Z,16.30
2023-03-24T05:27:20.975Z,17.82
2023-03-24T05:29:48.685Z,17.12
2023-03-24T05:32:17.997Z,18.27
2023-03-24T05:34:45.735Z,18.73
2023-03-24T05:37:16.963Z,20.72
2023-03-24T05:39:46.460Z,24.95
2023-03-24T05:42:16.999Z,26.80
2023-03-24T05:44:45.247Z,29.12
2023-03-24T05:47:16.113Z,21.10
2023-03-24T05:49:44.236Z,19.50
2023-03-24T05:52:15.371Z,20.90
2023-03-24T05:54:45.568Z,14.43
2023-03-24T05:57:16.249Z,11.30
2023-03-24T05:59:48.858Z,10.10
2023-03-24T06:02:21.492Z,8.18
2023-03-24T06:04:51.330Z,7.55
2023-03-24T06:07:21.766Z,8.95
2023-03-24T06:09:51.503Z,9.40
2023-03-24T06:12:21.132Z,9.30
2023-03-24T06:14:51.211Z,9.40
2023-03-24T06:17:20.717Z,9.63
2023-03-24T06:19:51.082Z,10.15
2023-03-24T06:22:38.244Z,9.65
2023-03-24T06:25:09.311Z,12.00
2023-03-24T06:27:37.872Z,11.48
2023-03-24T06:30:08.040Z,12.00
2023-03-24T06:32:36.141Z,11.95
2023-03-24T06:35:04.242Z,11.00
2023-03-24T06:37:42.966Z,11.45
2023-03-24T06:40:15.118Z,11.73
2023-03-24T06:42:44.777Z,11.10
2023-03-24T06:45:12.613Z,12.23
2023-03-24T06:47:40.205Z,11.15
2023-03-24T06:50:09.971Z,11.75
2023-03-24T06:52:37.833Z,10.60
2023-03-24T06:55:07.783Z,10.03
2023-03-24T06:57:35.425Z,9.98
2023-03-24T07:00:11.420Z,9.88
2023-03-24T07:02:42.333Z,10.00
2023-03-24T07:05:10.562Z,10.05
2023-03-24T07:10:33.344Z,9.98
2023-03-24T07:13:02.789Z,9.45
2023-03-24T07:15:30.989Z,9.70
2023-03-24T07:17:58.781Z,9.70
2023-03-24T07:20:42.070Z,10.18
2023-03-24T07:23:14.768Z,9.65
2023-03-24T07:25:44.445Z,11.00
2023-03-24T07:28:14.302Z,10.08
2023-03-24T07:30:42.601Z,10.85
2023-03-24T07:33:12.077Z,10.80
2023-03-24T07:35:41.243Z,10.55
2023-03-24T07:38:11.661Z,8.68
2023-03-24T07:40:39.215Z,9.03
2023-03-24T07:43:06.943Z,10.72
2023-03-24T07:45:36.506Z,9.40
2023-03-24T07:48:05.210Z,9.78
2023-03-24T07:50:34.914Z,10.38
2023-03-24T07:53:04.842Z,10.28
2023-03-24T07:55:32.799Z,9.38
2023-03-24T07:58:02.252Z,9.80
2023-03-24T08:00:32.325Z,10.78
2023-03-24T08:03:05.168Z,10.82
2023-03-24T08:05:52.244Z,10.23
2023-03-24T08:08:21.894Z,9.85
2023-03-24T08:10:50.441Z,10.43
2023-03-24T08:13:18.251Z,10.68
2023-03-24T08:15:46.336Z,9.53
2023-03-24T08:18:14.182Z,10.98
2023-03-24T08:20:41.937Z,10.30
2023-03-24T08:23:09.923Z,10.82
2023-03-24T08:25:38.117Z,11.48
2023-03-24T08:28:06.162Z,10.05
2023-03-24T08:30:33.980Z,10.78
2023-03-24T08:33:02.797Z,12.60
2023-03-24T08:35:37.072Z,10.23
2023-03-24T08:38:07.265Z,9.90
2023-03-24T08:40:38.206Z,8.45
2023-03-24T08:43:09.061Z,8.65
2023-03-24T08:45:37.490Z,7.67
2023-03-24T08:48:07.742Z,7.12
2023-03-24T08:50:39.101Z,7.72
2023-03-24T08:53:07.645Z,7.00
2023-03-24T08:55:37.576Z,6.83
2023-03-24T08:58:05.386Z,6.05
2023-03-24T09:00:32.915Z,6.83
2023-03-24T09:03:01.350Z,6.55
2023-03-24T09:05:41.379Z,7.87
2023-03-24T09:08:00.180Z,8.78
2023-03-24T09:10:27.567Z,8.48
2023-03-24T09:12:55.124Z,8.10
2023-03-24T09:15:23.073Z,8.35
2023-03-24T09:17:50.941Z,8.50
2023-03-24T09:20:18.912Z,7.97
2023-03-24T09:22:47.022Z,8.28
2023-03-24T09:25:20.450Z,6.90
2023-03-24T09:27:48.715Z,7.60
2023-03-24T09:30:18.126Z,6.03
2023-03-24T09:32:46.329Z,6.22
2023-03-24T09:35:15.139Z,6.37
2023-03-24T09:37:43.277Z,6.85
2023-03-24T09:40:24.613Z,6.55
2023-03-24T09:43:06.498Z,6.70
2023-03-24T09:45:39.484Z,6.45
2023-03-24T09:48:12.492Z,6.42
2023-03-24T09:51:07.088Z,5.20
2023-03-24T09:53:51.685Z,5.10
2023-03-24T09:56:22.997Z,4.92
2023-03-24T09:59:07.452Z,4.55
2023-03-24T10:01:35.943Z,4.83
2023-03-24T10:04:07.257Z,4.15
2023-03-24T10:06:41.712Z,4.30
2023-03-24T10:09:31.050Z,3.90
2023-03-24T10:12:22.286Z,4.15
2023-03-24T10:15:24.297Z,3.37
2023-03-24T10:18:12.211Z,3.42
2023-03-24T10:20:50.836Z,3.20
2023-03-24T10:23:36.105Z,3.35
2023-03-24T10:26:38.655Z,3.67
2023-03-24T10:29:26.962Z,3.45
2023-03-24T10:32:03.319Z,3.70
2023-03-24T10:34:33.752Z,3.65
2023-03-24T10:37:04.499Z,3.50
2023-03-24T10:39:43.582Z,2.47
2023-03-24T10:42:02.348Z,2.02
2023-03-24T10:44:30.503Z,2.62
2023-03-24T10:47:02.688Z,4.35
2023-03-24T10:49:30.991Z,2.27
2023-03-24T10:52:06.333Z,2.10
2023-03-24T10:54:33.984Z,2.70
2023-03-24T10:57:05.130Z,3.22
2023-03-24T10:59:41.169Z,1.92
2023-03-24T11:02:30.097Z,1.95
2023-03-24T11:05:01.862Z,2.85
2023-03-24T11:07:40.560Z,3.10
2023-03-24T11:10:18.705Z,2.83
2023-03-24T11:12:57.419Z,2.65
2023-03-24T11:15:29.931Z,2.83
2023-03-24T11:18:16.073Z,2.85
2023-03-24T11:20:57.738Z,3.15
2023-03-24T11:23:40.176Z,2.98
2023-03-24T11:26:19.211Z,2.87
2023-03-24T11:28:54.207Z,3.25
2023-03-24T11:31:29.962Z,3.47
2023-03-24T11:34:08.766Z,3.30
2023-03-24T11:36:43.842Z,4.10
2023-03-24T11:39:17.121Z,3.90
2023-03-24T11:42:05.351Z,3.75
2023-03-24T11:44:51.772Z,3.70
2023-03-24T11:47:39.917Z,3.85
2023-03-24T11:50:15.743Z,3.47
2023-03-24T11:52:54.903Z,3.65
2023-03-24T11:55:43.002Z,4.22
2023-03-24T11:58:40.407Z,3.40
2023-03-24T12:01:16.350Z,3.95
2023-03-24T12:04:28.760Z,3.67
2023-03-24T12:07:40.189Z,3.67
2023-03-24T12:10:31.380Z,3.62
2023-03-24T12:13:22.170Z,3.70
2023-03-24T12:16:12.388Z,3.90
2023-03-24T12:19:12.777Z,3.98
2023-03-24T12:21:52.194Z,3.75
2023-03-24T12:24:43.316Z,3.52
2023-03-24T12:27:42.608Z,3.45
2023-03-24T12:30:23.213Z,3.40
2023-03-24T12:33:28.361Z,3.65
2023-03-24T12:36:24.786Z,3.62
2023-03-24T12:39:18.666Z,3.30
2023-03-24T12:42:08.173Z,3.37
2023-03-24T12:45:05.112Z,3.60
2023-03-24T12:48:17.884Z,3.60
2023-03-24T12:51:00.176Z,3.55
2023-03-24T12:53:40.727Z,3.50
2023-03-24T12:56:18.664Z,19.87
2023-03-24T12:59:02.526Z,6.67
2023-03-24T13:01:50.550Z,4.00
2023-03-24T13:04:32.458Z,3.90
2023-03-24T13:07:14.163Z,4.25
2023-03-24T13:09:59.086Z,4.05
2023-03-24T13:12:55.088Z,3.90
2023-03-24T13:15:43.422Z,3.50
2023-03-24T13:18:16.723Z,3.30
2023-03-24T13:24:09.996Z,3.77
2023-03-24T13:26:49.132Z,3.95
2023-03-24T13:29:49.687Z,3.50
2023-03-24T13:32:26.225Z,3.50
2023-03-24T13:35:26.757Z,3.90
2023-03-24T13:38:03.789Z,3.80
2023-03-24T13:40:33.876Z,8.45
2023-03-24T13:43:16.504Z,4.17
2023-03-24T13:45:51.888Z,4.07
2023-03-24T13:48:33.246Z,4.35
2023-03-24T13:51:15.019Z,4.00
2023-03-24T13:54:08.859Z,4.80
2023-03-24T13:56:41.917Z,5.05
2023-03-24T14:01:45.001Z,4.05
2023-03-24T14:04:24.278Z,3.93
2023-03-24T14:06:59.782Z,4.00
2023-03-24T14:09:30.587Z,4.17
2023-03-24T14:12:17.502Z,3.85
2023-03-24T14:15:07.160Z,3.80
2023-03-24T14:17:34.620Z,3.80
2023-03-24T14:20:11.083Z,4.40
2023-03-24T14:22:47.820Z,4.35
2023-03-24T14:25:26.479Z,5.95
2023-03-24T14:28:43.791Z,5.92
2023-03-24T14:31:16.956Z,4.10
2023-03-24T14:34:01.140Z,3.72
2023-03-24T14:36:41.657Z,4.08
2023-03-24T14:39:45.779Z,4.10
2023-03-24T14:45:14.375Z,3.45
2023-03-24T14:47:40.906Z,3.95
2023-03-24T14:50:22.073Z,4.30
2023-03-24T14:53:03.103Z,4.03
2023-03-24T14:55:31.660Z,4.30
2023-03-24T14:58:13.396Z,4.62
2023-03-24T15:00:57.928Z,4.92
2023-03-24T15:03:49.648Z,4.75
2023-03-24T15:06:22.197Z,4.30
2023-03-24T15:08:58.803Z,4.10
2023-03-24T15:11:36.847Z,3.87
2023-03-24T15:14:09.935Z,4.00
2023-03-24T15:16:38.190Z,4.20
2023-03-24T15:19:17.137Z,4.03
2023-03-24T15:21:51.379Z,4.05
2023-03-24T15:24:30.457Z,4.25
2023-03-24T15:27:19.756Z,4.33
2023-03-24T15:29:55.460Z,3.80
2023-03-24T15:32:26.611Z,3.92
2023-03-24T15:34:58.439Z,4.65
2023-03-24T15:37:34.004Z,4.83
2023-03-24T15:40:15.418Z,4.53
2023-03-24T15:42:32.873Z,5.47
2023-03-24T15:45:11.246Z,4.78
2023-03-24T15:47:41.568Z,4.80
2023-03-24T15:50:37.970Z,5.30
2023-03-24T15:53:22.988Z,4.97
2023-03-24T15:56:08.623Z,5.25
2023-03-24T15:58:50.896Z,5.65
2023-03-24T16:01:38.964Z,5.70
2023-03-24T16:04:15.203Z,5.60
2023-03-24T16:06:50.966Z,6.58
2023-03-24T16:09:24.364Z,6.55
2023-03-24T16:11:52.176Z,6.35
2023-03-24T16:14:30.122Z,7.10
2023-03-24T16:17:01.672Z,7.28
2023-03-24T16:19:29.664Z,6.87
2023-03-24T16:21:57.244Z,6.92
2023-03-24T16:24:25.462Z,6.83
2023-03-24T16:26:53.043Z,6.30
2023-03-24T16:29:23.542Z,8.70
2023-03-24T16:31:55.224Z,8.65
2023-03-24T16:34:23.492Z,7.67
2023-03-24T16:36:53.745Z,9.38
2023-03-24T16:39:27.784Z,11.60
2023-03-24T16:41:56.244Z,10.15
2023-03-24T16:44:25.192Z,8.68
2023-03-24T16:46:54.589Z,8.35
2023-03-24T16:49:23.857Z,8.98
2023-03-24T16:51:53.386Z,9.05
2023-03-24T16:54:21.251Z,20.92
2023-03-24T16:56:49.104Z,16.70
2023-03-24T16:59:17.112Z,35.70
2023-03-24T17:01:46.819Z,45.95
2023-03-24T17:04:18.492Z,47.55
2023-03-24T17:06:50.151Z,49.88
2023-03-24T17:09:18.295Z,45.55
2023-03-24T17:11:51.290Z,28.47
2023-03-24T17:16:49.209Z,33.33
2023-03-24T17:19:21.397Z,32.05
2023-03-24T17:21:54.240Z,31.27
2023-03-24T17:24:23.646Z,30.97
2023-03-24T17:26:51.347Z,38.90
2023-03-24T17:29:18.961Z,49.77
2023-03-24T17:31:46.613Z,53.00
2023-03-24T17:36:48.675Z,47.62
2023-03-24T17:39:17.794Z,52.67
2023-03-24T17:41:45.949Z,53.15
2023-03-24T17:44:14.447Z,53.83
2023-03-24T17:46:42.254Z,52.33
2023-03-24T17:49:09.818Z,42.78
2023-03-24T17:51:37.418Z,38.30
2023-03-24T17:54:05.631Z,34.18
2023-03-24T17:56:33.207Z,40.33
2023-03-24T17:59:02.770Z,45.23
2023-03-24T18:01:33.069Z,43.50
2023-03-24T18:04:01.233Z,42.95
2023-03-24T18:06:30.231Z,44.75
2023-03-24T18:08:58.286Z,45.20
2023-03-24T18:11:26.024Z,44.98
2023-03-24T18:13:53.909Z,40.98
2023-03-24T18:16:22.383Z,36.38
2023-03-24T18:18:50.859Z,30.25
2023-03-24T18:21:19.327Z,25.43
2023-03-24T18:23:47.661Z,26.73
2023-03-24T18:26:17.032Z,28.00
2023-03-24T18:28:45.781Z,29.70
2023-03-24T18:31:18.257Z,31.35
2023-03-24T18:33:48.946Z,31.47
2023-03-24T18:36:20.382Z,32.38
2023-03-24T18:38:48.885Z,30.10
2023-03-24T18:41:17.737Z,27.67
2023-03-24T18:43:47.420Z,27.82
2023-03-24T18:46:16.120Z,29.35
2023-03-24T18:48:44.150Z,27.85
2023-03-24T18:51:12.377Z,26.75
2023-03-24T18:53:40.454Z,24.25
2023-03-24T18:56:08.839Z,23.10
2023-03-24T18:58:40.159Z,23.32
2023-03-24T19:01:11.428Z,23.80
2023-03-24T19:03:42.450Z,22.70
2023-03-24T19:06:12.856Z,25.52
2023-03-24T19:08:44.730Z,21.48
2023-03-24T19:11:15.374Z,25.52
2023-03-24T19:13:47.806Z,20.25
2023-03-24T19:16:16.808Z,18.40
2023-03-24T19:18:44.439Z,18.05
2023-03-24T19:21:12.730Z,16.65
2023-03-24T19:23:41.959Z,15.72
2023-03-24T19:26:09.887Z,15.75
2023-03-24T19:28:37.790Z,17.30
2023-03-24T19:31:15.379Z,16.37
2023-03-24T19:33:44.567Z,12.88
2023-03-24T19:36:13.422Z,12.85
2023-03-24T19:38:41.605Z,10.82
2023-03-24T19:41:13.447Z,11.35
2023-03-24T19:43:41.590Z,9.50
2023-03-24T19:46:09.550Z,8.70
2023-03-24T19:48:37.466Z,9.23
2023-03-24T19:51:05.613Z,10.25
2023-03-24T19:53:33.409Z,11.15
2023-03-24T19:56:01.575Z,9.43
2023-03-24T19:58:29.821Z,10.63
2023-03-24T20:00:57.576Z,11.50
2023-03-24T20:03:25.566Z,11.45
2023-03-24T20:05:53.690Z,11.35
2023-03-24T20:08:25.130Z,11.73
2023-03-24T20:10:52.729Z,11.97
2023-03-24T20:13:20.369Z,10.38
2023-03-24T20:15:48.492Z,10.90
2023-03-24T20:18:16.374Z,11.38
2023-03-24T20:20:44.095Z,12.03
2023-03-24T20:23:11.819Z,11.88
2023-03-24T20:25:43.203Z,13.48
2023-03-24T20:28:10.915Z,13.62
2023-03-24T20:30:39.875Z,11.48
2023-03-24T20:33:07.625Z,11.48
2023-03-24T20:35:36.524Z,11.25
2023-03-24T20:38:04.437Z,10.75
2023-03-24T20:40:32.330Z,13.83
2023-03-24T20:43:00.008Z,9.90
2023-03-24T20:45:29.498Z,9.80
2023-03-24T20:47:59.129Z,9.70
2023-03-24T20:50:27.142Z,9.88
2023-03-24T20:52:55.811Z,9.05
2023-03-24T20:55:23.442Z,8.40
2023-03-24T20:57:51.143Z,9.70
2023-03-24T21:00:19.992Z,9.80
2023-03-24T21:02:47.658Z,8.60
2023-03-24T21:05:15.792Z,9.20
2023-03-24T21:07:44.995Z,7.80
2023-03-24T21:10:13.238Z,7.75
2023-03-24T21:12:53.658Z,7.97
2023-03-24T21:15:10.896Z,10.50
2023-03-24T21:17:39.765Z,12.15
2023-03-24T21:20:10.819Z,11.48
2023-03-24T21:22:49.908Z,11.30
2023-03-24T21:25:17.496Z,10.48
2023-03-24T21:27:45.034Z,9.60
2023-03-24T21:30:13.293Z,11.15
2023-03-24T21:32:41.041Z,10.08
2023-03-24T21:35:10.896Z,9.88
2023-03-24T21:37:40.361Z,9.70
2023-03-24T21:40:10.059Z,9.83
2023-03-24T21:42:39.668Z,9.95
2023-03-24T21:45:14.915Z,9.60
2023-03-24T21:47:48.164Z,10.08
2023-03-24T21:50:20.750Z,8.85
2023-03-24T21:52:54.173Z,9.30
2023-03-24T21:55:24.794Z,8.70
2023-03-24T21:57:53.161Z,9.10
2023-03-24T22:00:23.965Z,9.33
2023-03-24T22:02:56.115Z,10.28
2023-03-24T22:05:27.274Z,9.85
2023-03-24T22:07:55.429Z,9.45
2023-03-24T22:10:23.240Z,9.53
2023-03-24T22:12:52.788Z,9.15
2023-03-24T22:15:22.003Z,8.75
2023-03-24T22:17:50.419Z,8.93
2023-03-24T22:20:19.570Z,8.45
2023-03-24T22:22:47.618Z,8.90
2023-03-24T22:25:18.198Z,9.55
2023-03-24T22:27:48.585Z,10.75
2023-03-24T22:30:17.540Z,8.73
2023-03-24T22:32:45.122Z,13.62
2023-03-24T22:35:12.704Z,13.22
2023-03-24T22:37:41.072Z,9.25
2023-03-24T22:40:09.938Z,9.63
2023-03-24T22:42:37.964Z,9.48
2023-03-24T22:45:07.747Z,7.25
2023-03-24T22:47:35.736Z,7.12
2023-03-24T22:50:04.419Z,7.37
2023-03-24T22:52:31.988Z,9.05
2023-03-24T22:54:59.493Z,8.95
2023-03-24T22:57:27.376Z,10.23
2023-03-24T22:59:56.383Z,9.58
2023-03-24T23:02:24.411Z,10.00
2023-03-24T23:04:52.649Z,9.50
2023-03-24T23:07:22.284Z,7.45
2023-03-24T23:09:49.834Z,6.95
2023-03-24T23:12:17.431Z,11.50
2023-03-24T23:14:45.872Z,8.50
2023-03-24T23:17:15.166Z,9.15
2023-03-24T23:19:43.034Z,9.23
2023-03-24T23:22:10.689Z,11.50
2023-03-24T23:24:38.914Z,7.53
2023-03-24T23:27:07.163Z,9.25
2023-03-24T23:29:40.122Z,10.93
2023-03-24T23:32:08.571Z,8.43
2023-03-24T23:34:37.535Z,6.90
2023-03-24T23:37:05.555Z,9.48
2023-03-24T23:39:34.972Z,9.30
2023-03-24T23:42:04.614Z,10.82
2023-03-24T23:44:32.434Z,11.70
2023-03-24T23:46:59.885Z,9.65
2023-03-24T23:49:27.355Z,11.57
2023-03-24T23:51:55.118Z,10.38
2023-03-24T23:54:22.908Z,11.33
2023-03-24T23:56:50.896Z,10.35
2023-03-24T23:59:18.550Z,8.55
